Time;durP1;ratioP1;P1;durP2;ratioP2;P2;SDS_P1;SDS_P2;PMS_P1;PMS_P2;Temp;Humidity;BMP_temperature;BMP_pressure;BME280_temperature;BME280_humidity;BME280_pressure;Samples;Min_cycle;Max_cycle;Signal;HPM_P1;HPM_P2
2021/05/06 00:34:40;;;;;;;0.68;0.50;;;15.90;56.50;;;;;;4933759;29;20039;-62
2021/05/06 00:37:06;;;;;;;0.75;0.43;;;15.70;59.90;;;;;;4968281;28;20050;-62
2021/05/06 00:39:36;;;;;;;0.52;0.52;;;15.70;59.90;;;;;;4993904;28;20022;-62
2021/05/06 00:42:28;;;;;;;;;;;15.70;59.90;;;;;;4994146;28;20029;-62
2021/05/06 01:06:04;;;;;;;1.77;0.90;;;15.70;60.00;;;;;;4993669;28;20082;-62
2021/05/06 01:08:38;;;;;;;0.90;0.50;;;15.90;60.20;;;;;;4993063;28;20026;-62
2021/05/06 01:11:50;;;;;;;0.88;0.40;;;16.00;57.80;;;;;;4993628;28;20116;-62
2021/05/06 01:13:53;;;;;;;0.70;0.32;;;15.50;57.40;;;;;;4987862;28;20186;-62
2021/05/06 01:16:19;;;;;;;0.80;0.50;;;15.60;60.30;;;;;;4993258;28;20041;-62
2021/05/06 01:18:44;;;;;;;1.30;0.45;;;15.60;60.20;;;;;;4993323;28;20026;-62
2021/05/06 01:21:10;;;;;;;0.60;0.50;;;15.80;60.30;;;;;;4993253;28;20515;-62
2021/05/06 01:23:38;;;;;;;0.73;0.57;;;15.60;60.20;;;;;;4993188;28;20438;-62
2021/05/06 01:26:28;;;;;;;0.63;0.50;;;15.50;60.10;;;;;;4993115;28;20036;-62
2021/05/06 01:28:57;;;;;;;1.38;0.50;;;15.90;60.70;;;;;;4993151;28;20479;-62
2021/05/06 01:31:25;;;;;;;2.13;0.30;;;15.50;60.10;;;;;;4993039;28;20038;-62
2021/05/06 01:34:02;;;;;;;0.73;0.60;;;15.70;60.30;;;;;;4993067;28;20030;-62
2021/05/06 01:36:33;;;;;;;0.55;0.50;;;15.50;60.10;;;;;;4992017;28;20549;-62
2021/05/06 02:00:14;;;;;;;0.50;0.40;;;15.40;56.50;;;;;;4993263;28;20387;-62
2021/05/06 02:02:39;;;;;;;0.93;0.50;;;15.40;56.40;;;;;;4992721;28;20030;-60
2021/05/06 02:05:06;;;;;;;1.02;0.60;;;15.40;60.40;;;;;;4993108;28;20035;-62
2021/05/06 02:07:32;;;;;;;1.00;0.32;;;15.40;60.10;;;;;;4992841;28;20371;-62
2021/05/06 02:09:58;;;;;;;0.45;0.40;;;15.70;60.60;;;;;;4992816;28;20450;-62
2021/05/06 02:12:23;;;;;;;0.50;0.50;;;15.70;60.70;;;;;;4992791;28;20122;-62
2021/05/06 02:14:56;;;;;;;0.40;0.40;;;15.40;60.40;;;;;;4992996;28;20456;-62
2021/05/06 02:17:22;;;;;;;0.50;0.40;;;15.80;59.20;;;;;;4992987;28;20027;-62
2021/05/06 02:19:49;;;;;;;1.98;0.70;;;15.90;60.70;;;;;;4994270;28;20097;-62
2021/05/06 02:22:19;;;;;;;0.60;0.60;;;15.50;60.50;;;;;;4996420;28;20026;-62
2021/05/06 02:24:46;;;;;;;0.70;0.32;;;15.40;60.70;;;;;;4996589;28;20026;-62
2021/05/06 02:27:12;;;;;;;0.90;0.50;;;15.30;60.30;;;;;;4996288;28;20031;-62
2021/05/06 02:29:38;;;;;;;1.27;0.65;;;15.90;60.80;;;;;;4978781;28;20022;-62
2021/05/06 02:32:05;;;;;;;1.67;0.68;;;15.80;60.70;;;;;;4996369;28;20034;-62
2021/05/06 02:34:31;;;;;;;0.50;0.40;;;15.30;59.70;;;;;;4996449;28;20088;-62
2021/05/06 02:36:57;;;;;;;0.55;0.50;;;15.50;60.50;;;;;;4996364;28;20019;-62
2021/05/06 02:39:23;;;;;;;1.73;0.50;;;15.40;60.60;;;;;;4978678;28;20041;-62
2021/05/06 02:41:48;;;;;;;0.63;0.60;;;15.30;60.50;;;;;;4995968;28;20109;-62
2021/05/06 02:44:14;;;;;;;0.63;0.50;;;15.40;60.50;;;;;;4996222;28;20022;-62
2021/05/06 02:46:40;;;;;;;0.60;0.50;;;15.40;60.60;;;;;;4996032;28;20026;-62
2021/05/06 02:49:05;;;;;;;0.93;0.65;;;15.80;60.80;;;;;;4995946;28;20027;-62
2021/05/06 02:51:36;;;;;;;0.75;0.50;;;15.60;60.80;;;;;;4994567;28;20491;-62
2021/05/06 02:54:02;;;;;;;0.55;0.45;;;16.10;61.10;;;;;;4995858;28;20384;-62
2021/05/06 03:02:41;;;;;;;0.73;0.50;;;15.40;57.30;;;;;;4996008;28;20065;-62
2021/05/06 03:04:52;;;;;;;1.17;0.70;;;15.60;57.40;;;;;;4995550;28;20455;-62
2021/05/06 03:07:23;;;;;;;0.60;0.40;;;15.30;60.70;;;;;;4995583;28;20023;-62
2021/05/06 03:12:46;;;;;;;0.40;0.40;;;15.40;57.30;;;;;;4995747;28;20406;-62
2021/05/06 03:23:22;;;;;;;0.75;0.50;;;15.20;57.50;;;;;;4995262;28;20419;-62
2021/05/06 03:25:48;;;;;;;0.80;0.60;;;15.30;60.80;;;;;;4995266;28;20022;-62
2021/05/06 03:28:20;;;;;;;0.60;0.40;;;15.20;60.70;;;;;;4995070;28;20046;-62
2021/05/06 04:27:24;;;;;;;0.52;0.28;;;14.90;58.90;;;;;;4950742;28;20104;-62
2021/05/06 04:37:43;;;;;;;0.70;0.40;;;15.00;59.70;;;;;;4993918;28;20411;-62
2021/05/06 04:56:05;;;;;;;0.40;0.40;;;15.60;58.80;;;;;;4993856;28;20108;-62
2021/05/06 05:03:20;;;;;;;0.52;0.50;;;14.70;56.00;;;;;;4993870;28;20038;-62
2021/05/06 05:07:20;;;;;;;0.40;0.35;;;14.90;55.70;;;;;;4992683;28;20116;-62
2021/05/06 05:18:19;;;;;;;0.45;0.40;;;15.00;56.90;;;;;;4993620;28;20037;-62
2021/05/06 05:21:13;;;;;;;1.00;0.45;;;14.90;55.80;;;;;;4993309;28;20037;-62
2021/05/06 05:26:12;;;;;;;0.40;0.25;;;15.50;56.50;;;;;;4993543;28;20084;-62
2021/05/06 05:28:38;;;;;;;1.10;0.40;;;15.30;59.30;;;;;;4993330;28;20022;-62
2021/05/06 05:31:04;;;;;;;0.50;0.40;;;15.40;59.30;;;;;;4993070;28;20510;-62
2021/05/06 05:33:34;;;;;;;0.63;0.20;;;15.50;59.30;;;;;;4993184;28;20031;-63
2021/05/06 05:56:38;;;;;;;0.50;0.35;;;15.30;57.00;;;;;;4997223;28;20088;-62
2021/05/06 05:59:04;;;;;;;0.68;0.52;;;15.30;60.10;;;;;;4997096;28;20018;-62
2021/05/06 06:01:29;;;;;;;0.70;0.50;;;15.30;60.10;;;;;;4996818;28;20026;-62
2021/05/06 06:03:55;;;;;;;0.63;0.28;;;15.40;60.20;;;;;;4996624;28;20121;-62
2021/05/06 06:06:21;;;;;;;0.68;0.60;;;15.70;60.40;;;;;;4997082;28;20026;-61
2021/05/06 06:08:48;;;;;;;1.63;0.47;;;15.30;60.70;;;;;;4995603;28;20529;-62
2021/05/06 06:11:13;;;;;;;2.13;0.30;;;15.30;61.00;;;;;;4979067;28;20034;-62
2021/05/06 06:13:40;;;;;;;1.95;0.38;;;15.30;60.50;;;;;;4996666;28;20026;-62
2021/05/06 06:16:11;;;;;;;2.25;0.60;;;15.30;60.60;;;;;;4996851;28;20116;-63
2021/05/06 06:18:47;;;;;;;1.80;0.40;;;16.20;57.70;;;;;;4996957;28;20054;-62
2021/05/06 06:21:19;;;;;;;0.80;0.70;;;15.50;57.60;;;;;;4996520;28;20077;-63
2021/05/06 06:23:45;;;;;;;1.65;0.60;;;15.50;61.00;;;;;;4996595;28;20026;-63
2021/05/06 06:26:11;;;;;;;2.65;0.85;;;15.40;61.10;;;;;;4996411;28;20454;-63
2021/05/06 06:28:39;;;;;;;2.22;0.57;;;15.90;61.40;;;;;;4996350;28;20030;-63
2021/05/06 06:33:50;;;;;;;4.50;0.98;;;15.30;60.90;;;;;;4996692;28;20034;-63
2021/05/06 06:36:17;;;;;;;1.95;0.70;;;15.40;60.90;;;;;;4996277;28;20027;-63
2021/05/06 06:38:45;;;;;;;2.28;0.80;;;15.40;60.70;;;;;;4996160;28;20463;-64
2021/05/06 06:41:12;;;;;;;1.63;0.70;;;15.40;60.90;;;;;;4996121;28;20427;-63
2021/05/06 06:43:45;;;;;;;1.05;0.68;;;15.30;60.80;;;;;;4996325;28;20023;-65
2021/05/06 06:46:11;;;;;;;3.35;0.77;;;15.40;61.00;;;;;;4996045;28;20610;-63
2021/05/06 06:48:37;;;;;;;3.60;0.93;;;15.40;60.70;;;;;;4978493;28;20062;-63
2021/05/06 06:51:03;;;;;;;0.98;0.60;;;15.50;60.50;;;;;;4995851;28;20105;-63
2021/05/06 06:53:29;;;;;;;0.60;0.60;;;15.30;60.60;;;;;;4995933;28;20041;-63
2021/05/06 06:55:56;;;;;;;2.10;0.60;;;15.20;60.70;;;;;;4995905;28;20045;-63
2021/05/06 06:58:22;;;;;;;1.95;0.70;;;15.40;60.90;;;;;;4995832;28;20053;-64
2021/05/06 07:00:47;;;;;;;2.75;0.90;;;15.40;60.50;;;;;;4995840;28;20448;-64
2021/05/06 07:03:13;;;;;;;1.83;1.00;;;15.40;61.20;;;;;;4995516;28;20057;-62
2021/05/06 07:05:41;;;;;;;1.17;0.77;;;15.50;61.20;;;;;;4995039;28;20468;-62
2021/05/06 07:08:24;;;;;;;5.70;0.98;;;15.60;61.40;;;;;;4995642;28;20056;-62
2021/05/06 07:10:53;;;;;;;1.20;0.57;;;15.50;57.20;;;;;;4995810;28;20023;-63
2021/05/06 07:13:18;;;;;;;1.52;0.77;;;15.40;61.20;;;;;;4995498;28;20105;-63
2021/05/06 07:15:55;;;;;;;1.80;0.70;;;15.80;60.80;;;;;;4995832;28;20053;-63
2021/05/06 07:18:21;;;;;;;1.08;0.80;;;15.70;61.40;;;;;;4995473;28;20023;-63
2021/05/06 07:20:48;;;;;;;1.70;0.60;;;15.80;61.20;;;;;;4995370;28;20041;-63
2021/05/06 07:23:19;;;;;;;3.03;0.70;;;15.40;60.80;;;;;;4995461;28;20029;-63
2021/05/06 07:25:46;;;;;;;5.68;0.98;;;15.50;60.60;;;;;;4977918;28;20475;-63
2021/05/06 07:28:20;;;;;;;1.45;0.65;;;15.60;60.60;;;;;;4995508;28;20025;-63
2021/05/06 07:30:48;;;;;;;2.33;0.88;;;15.50;56.70;;;;;;4995143;28;20038;-63
2021/05/06 07:33:14;;;;;;;1.00;0.63;;;15.60;60.70;;;;;;4977704;28;20109;-63
2021/05/06 07:35:40;;;;;;;2.40;0.82;;;15.50;60.50;;;;;;4995170;28;20088;-63
2021/05/06 07:38:07;;;;;;;1.35;0.90;;;15.80;60.40;;;;;;4995084;28;20108;-63
2021/05/06 07:40:34;;;;;;;2.95;1.27;;;15.50;60.30;;;;;;4994939;28;20042;-63
2021/05/06 07:43:00;;;;;;;3.40;0.90;;;16.30;60.50;;;;;;4977520;28;20105;-63
2021/05/06 07:45:26;;;;;;;1.70;0.90;;;15.60;60.00;;;;;;4977493;28;20033;-63
2021/05/06 07:47:51;;;;;;;2.97;1.05;;;15.60;60.00;;;;;;4993652;28;20112;-63
2021/05/06 07:50:18;;;;;;;3.75;0.73;;;15.60;59.80;;;;;;4994756;28;20019;-63
2021/05/06 07:52:46;;;;;;;1.23;0.90;;;15.60;59.80;;;;;;4977366;28;20038;-67
2021/05/06 07:55:13;;;;;;;2.67;0.88;;;15.70;59.90;;;;;;4994855;28;20019;-65
2021/05/06 07:57:39;;;;;;;4.97;0.93;;;15.50;59.70;;;;;;4994842;28;20042;-66
2021/05/06 08:00:13;;;;;;;1.45;0.85;;;15.70;61.00;;;;;;4995057;28;20460;-66
2021/05/06 08:02:42;;;;;;;0.88;0.57;;;15.80;56.30;;;;;;4977182;28;20060;-65
2021/05/06 08:05:08;;;;;;;3.22;0.90;;;15.90;60.00;;;;;;4994840;28;20483;-66
2021/05/06 08:07:34;;;;;;;3.45;0.60;;;15.90;58.90;;;;;;4995222;28;20411;-64
2021/05/06 08:10:00;;;;;;;2.22;0.63;;;17.00;59.90;;;;;;4994731;28;20022;-64
2021/05/06 08:12:26;;;;;;;1.60;0.75;;;16.10;59.50;;;;;;4994822;28;20590;-65
2021/05/06 08:14:53;;;;;;;1.88;0.60;;;16.00;59.00;;;;;;4994786;28;20383;-64
2021/05/06 08:17:19;;;;;;;3.75;0.57;;;16.40;59.20;;;;;;4993448;28;20046;-65
2021/05/06 08:19:47;;;;;;;2.33;0.90;;;16.70;59.50;;;;;;4994347;28;20030;-64
2021/05/06 08:22:13;;;;;;;1.88;1.05;;;16.20;58.10;;;;;;4994329;28;20023;-64
2021/05/06 08:24:39;;;;;;;1.10;0.65;;;16.30;57.60;;;;;;4994559;28;20072;-61
2021/05/06 08:27:05;;;;;;;0.60;0.50;;;16.90;57.50;;;;;;4994131;28;20117;-64
2021/05/06 08:29:31;;;;;;;1.48;0.65;;;16.50;57.60;;;;;;4994200;28;20015;-64
2021/05/06 08:31:56;;;;;;;1.38;0.60;;;16.80;56.80;;;;;;4992829;28;20034;-64
2021/05/06 08:34:22;;;;;;;1.70;0.90;;;17.50;57.30;;;;;;4994382;28;20018;-64
2021/05/06 08:36:48;;;;;;;0.98;0.73;;;16.90;56.20;;;;;;4994130;28;20040;-64
2021/05/06 08:39:14;;;;;;;0.57;0.50;;;;;;;;;;4994350;28;20077;-63
2021/05/06 08:41:41;;;;;;;4.28;0.65;;;16.80;54.00;;;;;;4994001;28;20041;-64
2021/05/06 08:44:10;;;;;;;0.80;0.80;;;16.80;55.70;;;;;;4994190;28;20025;-64
2021/05/06 08:46:40;;;;;;;3.72;0.70;;;16.90;55.70;;;;;;4994176;28;20022;-62
2021/05/06 08:49:08;;;;;;;2.35;0.70;;;16.90;56.30;;;;;;4994031;28;20030;-63
2021/05/06 08:51:37;;;;;;;1.35;0.65;;;17.00;55.50;;;;;;4992638;28;20049;-66
2021/05/06 08:54:03;;;;;;;1.60;0.40;;;17.80;55.10;;;;;;4993850;28;20034;-63
2021/05/06 08:56:29;;;;;;;1.20;0.50;;;17.20;54.10;;;;;;4993815;28;20025;-62
2021/05/06 08:58:56;;;;;;;3.38;0.60;;;17.10;54.30;;;;;;4994026;28;20476;-65
2021/05/06 09:01:22;;;;;;;0.45;0.40;;;17.80;54.60;;;;;;4993820;28;20034;-63
2021/05/06 09:03:47;;;;;;;1.02;0.52;;;17.10;54.10;;;;;;4993705;28;20046;-64
2021/05/06 09:06:17;;;;;;;1.35;0.60;;;17.50;54.20;;;;;;4994089;28;20022;-64
2021/05/06 09:08:49;;;;;;;0.50;0.40;;;17.30;54.10;;;;;;4993787;28;20050;-64
2021/05/06 09:11:15;;;;;;;0.93;0.50;;;17.30;54.30;;;;;;4993599;28;20088;-65
2021/05/06 09:13:42;;;;;;;3.13;0.60;;;17.20;54.60;;;;;;4993650;28;20072;-63
2021/05/06 09:16:08;;;;;;;1.13;0.40;;;17.30;54.10;;;;;;4993571;28;20033;-64
2021/05/06 09:18:43;;;;;;;3.10;0.70;;;17.30;54.90;;;;;;4993885;28;20037;-65
2021/05/06 09:21:25;;;;;;;0.32;0.32;;;17.50;54.40;;;;;;4993831;28;20037;-65
2021/05/06 09:24:12;;;;;;;0.90;0.35;;;17.60;54.40;;;;;;4975865;28;20419;-64
2021/05/06 09:26:39;;;;;;;1.45;0.57;;;17.60;54.10;;;;;;4993474;28;20081;-63
2021/05/06 09:29:08;;;;;;;1.63;0.40;;;17.60;53.90;;;;;;4993254;28;20023;-61
2021/05/06 09:31:35;;;;;;;1.80;0.70;;;17.60;53.80;;;;;;4993282;28;20037;-62
2021/05/06 09:34:04;;;;;;;0.55;0.45;;;17.70;53.60;;;;;;4991868;28;20030;-64
2021/05/06 09:36:30;;;;;;;0.98;0.50;;;17.80;53.70;;;;;;4992980;28;20463;-63
2021/05/06 09:38:57;;;;;;;1.63;0.60;;;17.90;80.50;;;;;;4992972;28;20036;-63
2021/05/06 09:41:25;;;;;;;2.53;0.55;;;17.80;53.50;;;;;;4993037;28;20044;-61
2021/05/06 09:43:51;;;;;;;1.73;0.52;;;18.00;53.90;;;;;;4993154;28;20106;-63
2021/05/06 09:46:32;;;;;;;3.05;0.40;;;17.70;53.60;;;;;;4975376;28;20037;-65
2021/05/06 09:49:11;;;;;;;1.98;0.60;;;18.00;53.60;;;;;;4993064;28;20029;-64
2021/05/06 09:51:38;;;;;;;0.75;0.43;;;17.70;53.50;;;;;;4993187;28;20034;-64
2021/05/06 09:54:12;;;;;;;1.30;0.55;;;18.30;54.00;;;;;;4993066;28;20050;-64
2021/05/06 09:56:39;;;;;;;1.25;0.40;;;17.80;53.80;;;;;;4992923;28;20027;-64
2021/05/06 09:59:06;;;;;;;2.45;0.52;;;18.30;54.30;;;;;;4992993;28;20018;-64
2021/05/06 10:01:42;;;;;;;3.47;0.60;;;17.60;54.00;;;;;;4993088;28;20022;-64
2021/05/06 10:04:18;;;;;;;1.50;0.82;;;17.60;54.00;;;;;;4992729;28;20085;-64
2021/05/06 10:07:05;;;;;;;0.95;0.55;;;17.80;54.10;;;;;;4991919;28;20356;-64
2021/05/06 10:09:32;;;;;;;1.10;0.40;;;17.80;54.10;;;;;;4992834;28;20022;-65
2021/05/06 10:12:01;;;;;;;1.98;0.68;;;17.70;54.10;;;;;;4992620;28;20059;-65
2021/05/06 10:14:27;;;;;;;2.92;0.70;;;17.50;54.10;;;;;;4992707;28;20029;-65
2021/05/06 10:16:53;;;;;;;2.22;0.68;;;17.70;54.10;;;;;;4992791;28;20476;-65
2021/05/06 10:19:19;;;;;;;2.75;0.40;;;17.70;54.10;;;;;;4992865;28;20452;-65
2021/05/06 10:21:45;;;;;;;2.15;0.40;;;17.90;54.30;;;;;;4975234;28;20468;-65
2021/05/06 10:24:11;;;;;;;1.85;0.50;;;17.80;54.30;;;;;;4992709;28;20110;-65
2021/05/06 10:26:39;;;;;;;1.05;0.45;;;17.80;54.20;;;;;;4992922;28;20026;-65
2021/05/06 10:29:05;;;;;;;3.65;0.60;;;17.70;54.20;;;;;;4975243;28;20019;-65
2021/05/06 10:31:31;;;;;;;1.35;0.60;;;17.70;54.20;;;;;;4992579;28;20033;-64
2021/05/06 10:33:58;;;;;;;0.80;0.50;;;17.60;54.40;;;;;;4992651;28;20097;-65
2021/05/06 10:36:24;;;;;;;2.05;0.70;;;17.80;54.50;;;;;;4992551;28;20031;-65
2021/05/06 10:38:49;;;;;;;1.92;0.43;;;17.80;81.60;;;;;;4992497;28;20023;-65
2021/05/06 10:41:31;;;;;;;1.33;0.30;;;17.50;54.50;;;;;;4994663;28;20039;-65
2021/05/06 10:43:59;;;;;;;0.60;0.50;;;17.60;54.40;;;;;;4996399;28;20026;-65
2021/05/06 10:46:55;;;;;;;1.23;0.50;;;17.60;54.60;;;;;;4996217;28;20113;-65
2021/05/06 10:49:22;;;;;;;0.55;0.35;;;17.70;54.40;;;;;;4978476;28;20403;-63
2021/05/06 10:51:59;;;;;;;0.98;0.40;;;17.60;54.40;;;;;;4994654;28;20033;-64
2021/05/06 10:54:33;;;;;;;2.45;0.80;;;17.60;54.60;;;;;;4996002;28;20018;-64
2021/05/06 10:57:00;;;;;;;1.05;0.40;;;18.20;55.00;;;;;;4996204;28;20112;-65
2021/05/06 10:59:31;;;;;;;0.77;0.32;;;17.60;54.60;;;;;;4978414;28;20483;-64
2021/05/06 11:01:58;;;;;;;1.08;0.57;;;17.70;54.40;;;;;;4996018;28;20113;-64
2021/05/06 11:05:08;;;;;;;0.60;0.40;;;17.60;54.50;;;;;;4994345;28;20039;-65
2021/05/06 11:07:34;;;;;;;0.60;0.60;;;17.50;54.60;;;;;;4995862;28;20073;-64
2021/05/06 11:10:02;;;;;;;5.70;0.70;;;17.50;54.60;;;;;;4995892;28;20513;-65
2021/05/06 11:12:29;;;;;;;4.60;0.82;;;17.50;54.90;;;;;;4978131;28;20034;-64
2021/05/06 11:14:58;;;;;;;2.92;0.52;;;17.60;54.80;;;;;;4978052;28;20027;-64
2021/05/06 11:17:24;;;;;;;1.00;0.47;;;17.40;55.00;;;;;;4977907;28;20026;-64
2021/05/06 11:19:49;;;;;;;0.68;0.47;;;17.30;55.00;;;;;;4978082;28;20014;-64
2021/05/06 11:27:59;;;;;;;2.38;0.77;;;17.40;55.20;;;;;;4995657;28;20121;-66
2021/05/06 11:30:38;;;;;;;2.25;0.45;;;17.50;82.20;;;;;;4977826;28;20018;-65
2021/05/06 11:33:16;;;;;;;7.32;1.00;;;17.60;55.40;;;;;;4995545;28;20034;-65
2021/05/06 11:36:10;;;;;;;2.42;0.70;;;17.50;55.60;;;;;;4995352;28;20022;-61
2021/05/06 11:38:43;;;;;;;1.92;0.50;;;17.70;55.40;;;;;;4995179;28;20109;-63
2021/05/06 11:41:17;;;;;;;3.83;1.50;;;17.60;55.50;;;;;;4995182;28;20026;-63
2021/05/06 11:43:49;;;;;;;3.00;0.70;;;17.60;53.70;;;;;;4995079;28;20057;-64
2021/05/06 11:46:23;;;;;;;1.55;0.80;;;17.60;53.50;;;;;;4994948;28;20439;-64
2021/05/06 11:49:00;;;;;;;7.55;1.42;;;17.60;52.90;;;;;;4994736;28;20034;-64
2021/05/06 11:51:31;;;;;;;2.38;1.20;;;17.50;52.50;;;;;;4994524;28;20026;-64
2021/05/06 11:54:17;;;;;;;1.90;0.98;;;17.60;52.30;;;;;;4995049;28;20037;-64
2021/05/06 11:56:57;;;;;;;2.65;0.70;;;17.50;53.30;;;;;;4995030;28;20097;-64
2021/05/06 11:59:31;;;;;;;3.50;1.00;;;17.80;53.80;;;;;;4995010;28;20069;-64
2021/05/06 12:02:05;;;;;;;3.28;0.82;;;17.70;53.70;;;;;;4977348;28;20510;-64
2021/05/06 12:04:34;;;;;;;2.40;0.60;;;17.60;54.20;;;;;;4973879;28;20134;-64
2021/05/06 12:07:12;;;;;;;2.50;1.02;;;17.60;54.10;;;;;;4975192;28;20023;-64
2021/05/06 12:09:37;;;;;;;1.13;0.70;;;17.70;54.60;;;;;;4975244;28;20426;-64
2021/05/06 12:12:03;;;;;;;1.85;0.88;;;17.60;54.50;;;;;;4975103;28;20031;-64
2021/05/06 12:14:31;;;;;;;2.35;0.70;;;17.60;54.50;;;;;;4973664;28;20488;-64
2021/05/06 12:16:57;;;;;;;1.73;1.00;;;17.70;54.60;;;;;;4974968;28;20022;-64
2021/05/06 12:19:23;;;;;;;2.13;0.80;;;17.40;54.40;;;;;;4974970;28;20033;-63
2021/05/06 12:21:59;;;;;;;2.88;0.88;;;17.40;54.60;;;;;;4974841;28;20015;-63
2021/05/06 12:24:31;;;;;;;1.25;0.60;;;17.60;54.90;;;;;;4974878;28;20037;-63
2021/05/06 12:27:17;;;;;;;2.08;0.80;;;17.40;54.80;;;;;;4974833;28;20025;-63
2021/05/06 12:29:48;;;;;;;2.10;0.70;;;17.60;54.80;;;;;;4974883;28;20023;-65
2021/05/06 12:32:22;;;;;;;1.85;0.90;;;17.60;54.70;;;;;;4974722;28;20488;-65
2021/05/06 12:34:48;;;;;;;1.80;0.60;;;18.10;55.20;;;;;;4973498;28;20388;-64
2021/05/06 12:37:15;;;;;;;1.55;0.85;;;17.40;54.70;;;;;;4974740;28;20097;-64
2021/05/06 12:39:42;;;;;;;2.33;0.82;;;17.90;55.10;;;;;;4974528;28;20019;-65
2021/05/06 12:42:08;;;;;;;2.30;0.88;;;17.40;55.10;;;;;;4974568;28;20109;-65
2021/05/06 12:44:40;;;;;;;1.30;0.80;;;17.50;55.20;;;;;;4974848;28;20023;-64
2021/05/06 12:47:21;;;;;;;0.70;0.70;;;17.50;54.90;;;;;;4974603;28;20019;-63
2021/05/06 12:50:07;;;;;;;2.53;0.73;;;17.30;54.80;;;;;;4974465;28;20140;-64
2021/05/06 12:52:36;;;;;;;0.73;0.40;;;17.50;55.00;;;;;;4967133;28;20105;-64
2021/05/06 12:55:18;;;;;;;2.65;0.70;;;17.30;55.00;;;;;;4974477;28;20033;-64
2021/05/06 12:57:44;;;;;;;1.42;0.45;;;19.10;55.90;;;;;;4974506;28;20134;-64
2021/05/06 13:00:22;;;;;;;0.90;0.70;;;17.60;54.90;;;;;;4974331;28;20050;-63
2021/05/06 13:02:47;;;;;;;2.28;0.32;;;17.40;55.20;;;;;;4975293;28;20031;-62
2021/05/06 13:05:30;;;;;;;2.50;0.80;;;17.80;55.60;;;;;;4993628;28;20165;-66
2021/05/06 13:07:56;;;;;;;2.03;0.77;;;17.70;55.50;;;;;;4993555;28;20030;-66
2021/05/06 13:10:30;;;;;;;3.25;0.80;;;17.20;55.10;;;;;;4975897;28;20022;-67
2021/05/06 13:12:56;;;;;;;1.27;0.40;;;18.00;55.70;;;;;;4993510;28;20037;-66
2021/05/06 13:15:22;;;;;;;2.90;0.63;;;18.00;55.70;;;;;;4993328;28;20022;-66
2021/05/06 13:17:48;;;;;;;2.00;0.60;;;17.40;55.60;;;;;;4993085;28;20033;-66
2021/05/06 13:20:40;;;;;;;2.15;0.50;;;17.20;55.50;;;;;;4992020;28;20026;-65
2021/05/06 13:23:11;;;;;;;1.27;0.60;;;17.30;55.70;;;;;;4973252;28;20271;-65
2021/05/06 13:25:54;;;;;;;3.58;0.43;;;17.30;55.60;;;;;;4993391;28;20117;-66
2021/05/06 13:28:32;;;;;;;3.65;0.68;;;17.60;56.00;;;;;;4993386;28;20015;-66
2021/05/06 13:31:14;;;;;;;1.00;0.70;;;17.10;55.90;;;;;;4993205;28;20560;-66
2021/05/06 13:33:41;;;;;;;2.72;0.60;;;17.10;55.90;;;;;;4993525;28;20072;-66
2021/05/06 13:36:15;;;;;;;1.63;0.57;;;17.20;55.80;;;;;;4993518;28;20109;-66
2021/05/06 13:38:47;;;;;;;1.10;0.52;;;17.20;56.30;;;;;;4993012;28;20022;-66
2021/05/06 13:41:14;;;;;;;2.50;0.70;;;17.20;56.80;;;;;;4993195;28;20030;-66
2021/05/06 13:43:40;;;;;;;3.72;0.60;;;17.20;57.00;;;;;;4993217;28;20019;-65
2021/05/06 13:46:10;;;;;;;0.70;0.45;;;17.00;56.70;;;;;;4993055;28;20153;-66
2021/05/06 13:48:36;;;;;;;0.73;0.60;;;17.00;56.20;;;;;;4975430;28;20033;-66
2021/05/06 13:51:02;;;;;;;0.75;0.40;;;;;;;;;;4992917;28;20029;-66
2021/05/06 13:53:28;;;;;;;1.23;0.50;;;17.10;56.00;;;;;;4992856;28;20485;-66
2021/05/06 13:55:54;;;;;;;2.88;0.80;;;17.00;56.20;;;;;;4993191;28;20105;-66
2021/05/06 13:58:19;;;;;;;2.40;0.88;;;17.00;56.00;;;;;;4992948;28;20022;-66
2021/05/06 14:00:45;;;;;;;0.60;0.50;;;17.20;56.10;;;;;;4991394;28;20073;-65
2021/05/06 14:03:10;;;;;;;0.60;0.60;;;17.00;55.90;;;;;;4991239;28;20033;-64
2021/05/06 14:05:36;;;;;;;0.75;0.60;;;17.10;56.20;;;;;;4992944;28;20197;-63
2021/05/06 14:08:02;;;;;;;2.63;0.60;;;17.00;56.10;;;;;;4992970;28;20026;-64
2021/05/06 14:10:27;;;;;;;0.40;0.40;;;17.20;56.30;;;;;;4992719;28;20479;-64
2021/05/06 14:12:53;;;;;;;1.45;0.60;;;17.00;56.50;;;;;;4992684;28;20038;-63
2021/05/06 14:15:19;;;;;;;0.80;0.80;;;17.00;56.40;;;;;;4976114;28;20027;-63
2021/05/06 14:17:44;;;;;;;1.50;0.60;;;17.10;56.30;;;;;;4978990;28;20026;-64
2021/05/06 14:20:11;;;;;;;1.20;0.40;;;16.90;56.60;;;;;;4996630;28;20026;-64
2021/05/06 14:22:36;;;;;;;1.65;0.40;;;17.10;56.30;;;;;;4996541;28;20062;-63
2021/05/06 14:25:02;;;;;;;1.38;0.60;;;16.90;56.30;;;;;;4996628;28;20077;-64
2021/05/06 14:27:27;;;;;;;1.17;0.63;;;17.00;56.40;;;;;;4996532;28;20034;-64
2021/05/06 14:29:53;;;;;;;1.42;0.50;;;16.90;56.30;;;;;;4996362;28;20045;-63
2021/05/06 14:32:18;;;;;;;0.80;0.50;;;17.00;56.30;;;;;;4996299;28;20038;-63
2021/05/06 14:34:44;;;;;;;1.05;0.43;;;17.40;57.40;;;;;;4995032;28;20025;-63
2021/05/06 14:37:10;;;;;;;0.57;0.50;;;17.00;56.20;;;;;;4996322;28;20022;-63
2021/05/06 14:39:36;;;;;;;1.40;0.50;;;16.80;56.10;;;;;;4996477;28;20245;-65
2021/05/06 14:42:01;;;;;;;2.30;0.85;;;17.60;57.40;;;;;;4996068;28;20031;-64
2021/05/06 14:44:27;;;;;;;0.52;0.30;;;17.30;57.00;;;;;;4996064;28;20069;-64
2021/05/06 14:46:55;;;;;;;0.75;0.50;;;17.00;57.20;;;;;;4978634;28;20386;-64
2021/05/06 14:49:21;;;;;;;0.57;0.40;;;16.80;56.70;;;;;;4995963;28;20030;-63
2021/05/06 14:51:47;;;;;;;0.52;0.40;;;16.80;56.80;;;;;;4995957;28;20038;-63
2021/05/06 14:54:12;;;;;;;0.82;0.50;;;16.70;56.50;;;;;;4996086;28;20093;-63
2021/05/06 14:56:38;;;;;;;0.90;0.50;;;16.90;56.60;;;;;;4994755;28;20494;-63
2021/05/06 14:59:03;;;;;;;0.80;0.60;;;16.70;57.20;;;;;;4995848;28;20084;-64
2021/05/06 15:01:34;;;;;;;0.68;0.50;;;16.90;56.70;;;;;;4978428;28;20023;-63
2021/05/06 15:04:00;;;;;;;3.00;0.55;;;16.90;56.20;;;;;;4995792;28;20380;-64
2021/05/06 15:06:26;;;;;;;0.75;0.30;;;16.70;56.20;;;;;;4978190;28;20026;-63
2021/05/06 15:08:51;;;;;;;2.22;0.60;;;16.70;56.50;;;;;;4995864;28;20022;-63
2021/05/06 15:11:17;;;;;;;1.40;0.70;;;17.60;57.30;;;;;;4995588;28;20050;-64
2021/05/06 15:13:43;;;;;;;0.40;0.40;;;16.70;57.00;;;;;;4995603;28;20503;-64
2021/05/06 15:16:08;;;;;;;2.60;0.60;;;17.00;56.50;;;;;;4994355;28;20018;-65
2021/05/06 15:18:34;;;;;;;0.95;0.60;;;16.70;56.00;;;;;;4995764;28;20023;-65
2021/05/06 15:21:00;;;;;;;0.47;0.40;;;16.80;55.90;;;;;;4995475;28;20030;-65
2021/05/06 15:23:26;;;;;;;0.65;0.43;;;16.80;55.90;;;;;;4978045;28;20158;-65
2021/05/06 15:25:52;;;;;;;1.88;0.50;;;16.80;84.30;;;;;;4994873;28;20495;-65
2021/05/06 15:28:17;;;;;;;1.00;0.60;;;17.60;56.60;;;;;;4978227;28;20029;-65
2021/05/06 15:30:45;;;;;;;0.68;0.40;;;16.80;55.70;;;;;;4977778;28;20027;-65
2021/05/06 15:33:10;;;;;;;0.40;0.30;;;16.80;55.70;;;;;;4977822;28;20030;-65
2021/05/06 15:35:36;;;;;;;0.90;0.60;;;17.10;55.40;;;;;;4994013;28;20034;-65
2021/05/06 15:38:03;;;;;;;0.63;0.35;;;16.60;55.10;;;;;;4995252;28;20026;-66
2021/05/06 15:40:29;;;;;;;0.63;0.50;;;16.60;55.00;;;;;;4995149;28;20018;-65
2021/05/06 15:42:54;;;;;;;0.40;0.30;;;16.60;54.90;;;;;;4994956;28;20475;-65
2021/05/06 15:45:20;;;;;;;0.95;0.35;;;16.80;55.00;;;;;;4993615;28;20023;-65
2021/05/06 15:47:45;;;;;;;0.52;0.40;;;16.60;54.70;;;;;;4995137;28;20114;-65
2021/05/06 15:50:13;;;;;;;0.68;0.52;;;17.00;55.00;;;;;;4977357;28;20452;-65
2021/05/06 15:52:39;;;;;;;1.05;0.50;;;16.70;54.90;;;;;;4994702;28;20387;-65
2021/05/06 15:55:08;;;;;;;0.60;0.50;;;16.60;55.00;;;;;;4994330;28;20022;-65
2021/05/06 15:57:35;;;;;;;0.80;0.35;;;16.70;55.10;;;;;;4995113;28;20114;-65
2021/05/06 16:00:02;;;;;;;0.60;0.57;;;16.70;55.00;;;;;;4994700;28;20050;-65
2021/05/06 16:02:29;;;;;;;1.75;0.82;;;16.70;54.80;;;;;;4994599;28;20081;-65
2021/05/06 16:04:55;;;;;;;0.70;0.60;;;16.70;54.60;;;;;;4994634;28;20045;-65
2021/05/06 16:07:20;;;;;;;1.60;0.50;;;16.50;54.80;;;;;;4994612;28;20517;-65
2021/05/06 16:09:46;;;;;;;1.05;0.50;;;16.70;54.70;;;;;;4994664;28;20447;-65
2021/05/06 16:12:11;;;;;;;2.75;1.02;;;16.70;54.60;;;;;;4994398;28;20509;-65
2021/05/06 16:14:37;;;;;;;0.82;0.50;;;16.70;54.70;;;;;;4976907;28;20030;-65
2021/05/06 16:17:03;;;;;;;0.40;0.40;;;16.70;54.70;;;;;;4994731;28;20038;-65
2021/05/06 16:19:29;;;;;;;0.75;0.60;;;17.40;55.00;;;;;;4994462;28;20424;-66
2021/05/06 16:21:54;;;;;;;1.67;0.82;;;16.70;54.60;;;;;;4994562;28;20026;-65
2021/05/06 16:24:20;;;;;;;1.13;0.60;;;16.50;54.50;;;;;;4992907;28;20023;-65
2021/05/06 16:26:47;;;;;;;0.70;0.40;;;17.30;54.90;;;;;;4992719;28;20061;-66
2021/05/06 16:29:17;;;;;;;0.93;0.40;;;16.70;54.50;;;;;;4994026;28;20034;-65
2021/05/06 16:31:45;;;;;;;0.57;0.50;;;16.60;54.40;;;;;;4976560;28;20104;-65
2021/05/06 16:34:17;;;;;;;0.40;0.40;;;16.70;54.40;;;;;;4993921;28;20027;-65
2021/05/06 16:37:01;;;;;;;0.82;0.50;;;16.60;54.20;;;;;;4994067;28;20023;-66